South Arkansas Regional Airport/ Goodwin Field

Airport
ICAO code: 
KELD
Summary
ICAO Region: 
NAM
Territory: 
Location: 
El Dorado, Arkansas,
Elevation: 
277 ft
Coordinates: 
Aerial View: 
33° 13' 14.142" N, 92° 48' 37.275" W
Metar
Observation
KELD 020905Z AUTO 00000KT 3/4SM BR VV001 08/07 A3011 RMK AO2 T00780072
Station
El Dorado, South Arkansas Regional at Goodwin Field Airport
Date/Time
2021-12-02 09:05:00
Wind direction
Wind speed
00 kts
Lowest cloud amount
n/a
Temperature
7.8°C
Dew point
7.2°C
Humidity
95%
Weather condition
mist

Description

General Aviation airport serving El Dorado, Arkansas located 8 nm west of the city's business district.

Climatology

Humid “subtropical” climate (Köppen climate classification Cfa) - characterized by hot, humid summers and cool winters. Significant amounts of precipitation occur in all seasons in most areas. Winter rainfall (and sometimes snowfall) is associated with large storms that the westerlies steer from west to east. Most summer rainfall occurs during thunderstorms and occasional tropical storms (hurricanes).

Runways

Designator Length Width Surface Rops
17/35 1138 23 CON No/No
13/31 1554 30 CON Yes/Yes
4/22 2012 46 ASP Yes/Yes
Airport map: 
Aerial View: 

SKYbrary Partners:

Safety knowledge contributed by: